KBQK

Brunswick Golden Isles Airport

Brunswick, Georgia, USA
METAR KBQK 232015Z AUTO 02004KT 10SM CLR 21/18 A3011 RMK AO2
Observed Flight Rules
Oct-23 @ 20:15 UTC (22 minutes ago) Visual Flight Rules
Wind Visibility Clouds
20° at 4 knots 10 miles
  • Clear skies
Temperatures Readings
Current 21°C / 70°F
Dewpoint 18°C / 64°F
Humidity 83%
Altimeter 30.11" Hg
Pressure 1020 hPa
Elevation 8
METAR KBQK 232015Z AUTO 02004KT 10SM CLR 21/18 A3011 RMK AO2
Observed Flight Rules
Oct-23 @ 20:15 UTC
(22 minutes ago)
VFR
Wind Visibility
20° at 4 knots 10 miles
Clouds
  • Clear skies
Temperature Dewpoint
21°C / 70°F 18°C / 64°F
Humidity Altimeter Pressure
83% 30.11" Hg 1020 hPa